sensor_id;sensor_type;location;lat;lon;timestamp;P1;durP1;ratioP1;P2;durP2;ratioP2
47762;SDS011;33526;42.690;23.322;2023-06-22T21:09:24;22.38;;;15.60;;
47762;SDS011;33526;42.690;23.322;2023-06-22T21:24:25;21.00;;;15.50;;
47762;SDS011;33526;42.690;23.322;2023-06-22T21:42:33;19.40;;;16.17;;
47762;SDS011;33526;42.690;23.322;2023-06-22T22:05:27;18.50;;;13.57;;
47762;SDS011;33526;42.690;23.322;2023-06-22T22:08:06;19.13;;;13.25;;
47762;SDS011;33526;42.690;23.322;2023-06-22T22:10:50;21.60;;;13.73;;
47762;SDS011;33526;42.690;23.322;2023-06-22T22:16:00;20.17;;;12.10;;
47762;SDS011;33526;42.690;23.322;2023-06-22T22:19:14;15.70;;;12.25;;
47762;SDS011;33526;42.690;23.322;2023-06-22T22:22:07;19.85;;;13.15;;
47762;SDS011;33526;42.690;23.322;2023-06-22T22:24:57;18.67;;;12.85;;
47762;SDS011;33526;42.690;23.322;2023-06-22T22:27:27;17.75;;;13.68;;
47762;SDS011;33526;42.690;23.322;2023-06-22T22:30:07;17.30;;;13.40;;
47762;SDS011;33526;42.690;23.322;2023-06-22T22:36:01;26.63;;;13.60;;
47762;SDS011;33526;42.690;23.322;2023-06-22T22:38:40;22.33;;;14.43;;
47762;SDS011;33526;42.690;23.322;2023-06-22T22:41:32;23.77;;;14.73;;
47762;SDS011;33526;42.690;23.322;2023-06-22T22:43:59;21.73;;;14.48;;
47762;SDS011;33526;42.690;23.322;2023-06-22T22:46:27;18.40;;;15.10;;
47762;SDS011;33526;42.690;23.322;2023-06-22T22:49:13;23.95;;;14.10;;
47762;SDS011;33526;42.690;23.322;2023-06-22T22:54:25;24.67;;;15.65;;
47762;SDS011;33526;42.690;23.322;2023-06-22T22:57:15;21.60;;;15.30;;
47762;SDS011;33526;42.690;23.322;2023-06-22T22:59:58;25.02;;;14.52;;
47762;SDS011;33526;42.690;23.322;2023-06-22T23:02:50;23.77;;;14.48;;
47762;SDS011;33526;42.690;23.322;2023-06-22T23:05:55;23.67;;;15.48;;
47762;SDS011;33526;42.690;23.322;2023-06-22T23:08:27;24.70;;;16.35;;
47762;SDS011;33526;42.690;23.322;2023-06-22T23:11:24;29.25;;;17.20;;
47762;SDS011;33526;42.690;23.322;2023-06-22T23:16:37;30.90;;;18.25;;
47762;SDS011;33526;42.690;23.322;2023-06-22T23:19:09;29.70;;;19.13;;
47762;SDS011;33526;42.690;23.322;2023-06-22T23:22:03;30.20;;;20.13;;
47762;SDS011;33526;42.690;23.322;2023-06-22T23:25:04;26.60;;;19.48;;
47762;SDS011;33526;42.690;23.322;2023-06-22T23:27:56;28.95;;;20.13;;
47762;SDS011;33526;42.690;23.322;2023-06-22T23:30:23;31.90;;;21.52;;
47762;SDS011;33526;42.690;23.322;2023-06-22T23:32:56;25.63;;;19.88;;
47762;SDS011;33526;42.690;23.322;2023-06-22T23:35:23;30.52;;;20.83;;
47762;SDS011;33526;42.690;23.322;2023-06-22T23:38:11;29.67;;;21.13;;
47762;SDS011;33526;42.690;23.322;2023-06-22T23:40:44;27.83;;;21.20;;
47762;SDS011;33526;42.690;23.322;2023-06-22T23:43:33;31.15;;;21.08;;
47762;SDS011;33526;42.690;23.322;2023-06-22T23:46:28;27.38;;;21.15;;
47762;SDS011;33526;42.690;23.322;2023-06-22T23:49:25;31.73;;;21.58;;
47762;SDS011;33526;42.690;23.322;2023-06-22T23:51:59;26.85;;;20.75;;
47762;SDS011;33526;42.690;23.322;2023-06-22T23:54:35;27.00;;;19.77;;
